Time;durP1;ratioP1;P1;durP2;ratioP2;P2;SDS_P1;SDS_P2;PMS_P1;PMS_P2;Temp;Humidity;BMP_temperature;BMP_pressure;BME280_temperature;BME280_humidity;BME280_pressure;Samples;Min_cycle;Max_cycle;Signal;HPM_P1;HPM_P2
2024/02/10 00:00:55;;;;;;;42.13;18.25;;;;;;;;;;4977896;28;20046;-65
2024/02/10 00:03:23;;;;;;;40.00;17.92;;;;;;;;;;4983729;28;20046;-64
2024/02/10 00:05:49;;;;;;;38.70;18.30;;;;;;;;;;4978637;28;20031;-65
2024/02/10 00:08:15;;;;;;;36.40;17.75;;;;;;;;;;4981960;28;20042;-65
2024/02/10 00:10:41;;;;;;;38.33;18.42;;;;;;;;;;4986740;28;20053;-65
2024/02/10 00:13:07;;;;;;;37.30;17.38;;;;;;;;;;4976896;28;20043;-65
2024/02/10 00:15:33;;;;;;;35.58;17.25;;;;;;;;;;4977035;28;20069;-66
2024/02/10 00:18:00;;;;;;;37.55;16.88;;;;;;;;;;4978376;28;20051;-63
2024/02/10 00:20:26;;;;;;;31.13;15.40;;;;;;;;;;4974120;28;20042;-64
2024/02/10 00:22:52;;;;;;;27.73;14.18;;;;;;;;;;4975603;28;20051;-64
2024/02/10 00:25:21;;;;;;;29.17;14.88;;;;;;;;;;4979480;28;20058;-64
2024/02/10 00:27:47;;;;;;;27.90;14.13;;;;;;;;;;4981573;28;20058;-64
2024/02/10 00:30:16;;;;;;;27.63;14.10;;;;;;;;;;4982389;28;20038;-67
2024/02/10 00:32:43;;;;;;;23.65;12.63;;;;;;;;;;4981215;28;20126;-69
2024/02/10 00:35:09;;;;;;;24.98;12.77;;;;;;;;;;4982737;28;20034;-68
2024/02/10 00:37:36;;;;;;;23.83;12.40;;;;;;;;;;4983081;28;20042;-69
2024/02/10 00:40:04;;;;;;;21.40;11.32;;;;;;;;;;4979151;28;20066;-68
2024/02/10 00:42:31;;;;;;;22.50;12.00;;;;;;;;;;4985416;28;20057;-69
2024/02/10 00:44:59;;;;;;;25.77;13.02;;;;;;;;;;4986084;28;20041;-69
2024/02/10 00:47:28;;;;;;;20.42;12.02;;;;;;;;;;4989391;28;20394;-68
2024/02/10 00:50:01;;;;;;;17.25;11.00;;;;;;;;;;4987216;28;20362;-68
2024/02/10 00:52:28;;;;;;;21.08;11.65;;;;;;;;;;4987986;28;20046;-69
2024/02/10 00:54:54;;;;;;;17.10;11.23;;;;;;;;;;4981071;28;20039;-68
2024/02/10 00:57:20;;;;;;;18.10;11.07;;;;;;;;;;4985437;28;20042;-68
2024/02/10 00:59:47;;;;;;;18.75;11.50;;;;;;;;;;4986456;28;20056;-69
2024/02/10 01:02:20;;;;;;;19.13;11.63;;;;;;;;;;4988023;28;20042;-68
2024/02/10 01:04:47;;;;;;;19.13;11.38;;;;;;;;;;4983309;28;20069;-63
2024/02/10 01:07:15;;;;;;;19.95;11.27;;;;;;;;;;4961893;28;20114;-64
2024/02/10 01:09:46;;;;;;;17.35;10.70;;;;;;;;;;4987094;28;20042;-64
2024/02/10 01:12:13;;;;;;;16.45;10.38;;;;;;;;;;4977612;28;20038;-64
2024/02/10 01:14:40;;;;;;;16.83;10.13;;;;;;;;;;4982142;28;20041;-64
2024/02/10 01:17:10;;;;;;;16.23;10.30;;;;;;;;;;4985987;28;20039;-64
2024/02/10 01:19:46;;;;;;;15.85;9.75;;;;;;;;;;4963402;28;20045;-65
2024/02/10 01:22:17;;;;;;;17.13;10.73;;;;;;;;;;4978014;28;20416;-63
2024/02/10 01:24:45;;;;;;;14.85;9.50;;;;;;;;;;4982247;28;20037;-65
2024/02/10 01:27:14;;;;;;;14.80;9.30;;;;;;;;;;4985325;28;20142;-64
2024/02/10 01:29:40;;;;;;;14.82;9.73;;;;;;;;;;4981134;28;20125;-64
2024/02/10 01:32:09;;;;;;;17.05;10.38;;;;;;;;;;4973633;28;20041;-64
2024/02/10 01:34:35;;;;;;;15.00;9.70;;;;;;;;;;4979175;28;20049;-64
2024/02/10 01:37:01;;;;;;;15.02;9.18;;;;;;;;;;4975044;28;20050;-64
2024/02/10 01:39:27;;;;;;;17.40;10.55;;;;;;;;;;4982644;28;20037;-64
2024/02/10 01:41:53;;;;;;;16.55;9.43;;;;;;;;;;4972039;28;20031;-65
2024/02/10 01:44:19;;;;;;;15.07;10.27;;;;;;;;;;4974739;28;20245;-64
2024/02/10 01:46:46;;;;;;;17.40;10.43;;;;;;;;;;4972596;28;20045;-64
2024/02/10 01:49:13;;;;;;;17.48;10.57;;;;;;;;;;4971280;28;20035;-64
2024/02/10 01:51:39;;;;;;;16.83;10.75;;;;;;;;;;4958118;28;20062;-64
2024/02/10 01:54:06;;;;;;;17.40;10.57;;;;;;;;;;4980297;28;20055;-65
2024/02/10 01:56:33;;;;;;;19.13;11.10;;;;;;;;;;4982073;28;20053;-64
2024/02/10 01:59:00;;;;;;;15.68;10.40;;;;;;;;;;4976677;28;20056;-67
2024/02/10 02:01:27;;;;;;;16.65;10.60;;;;;;;;;;4982341;28;20057;-64
2024/02/10 02:03:53;;;;;;;17.30;10.48;;;;;;;;;;4982951;28;20050;-65
2024/02/10 02:06:19;;;;;;;16.48;10.57;;;;;;;;;;4978187;28;20066;-64
2024/02/10 02:08:47;;;;;;;15.90;9.90;;;;;;;;;;4976892;28;20418;-64
2024/02/10 02:11:14;;;;;;;17.05;10.10;;;;;;;;;;4983218;28;20119;-64
2024/02/10 02:13:41;;;;;;;14.32;9.40;;;;;;;;;;4978246;28;20054;-64
2024/02/10 02:16:11;;;;;;;17.48;10.07;;;;;;;;;;4978773;28;20050;-64
2024/02/10 02:18:38;;;;;;;14.35;9.52;;;;;;;;;;4989305;28;20038;-64
2024/02/10 02:21:06;;;;;;;18.15;10.90;;;;;;;;;;4974556;28;20312;-65
2024/02/10 02:23:34;;;;;;;18.10;10.40;;;;;;;;;;4977050;28;20047;-63
2024/02/10 02:26:01;;;;;;;19.45;10.57;;;;;;;;;;4976132;28;20388;-62
2024/02/10 02:28:27;;;;;;;17.90;10.18;;;;;;;;;;4978463;28;20047;-63
2024/02/10 02:30:53;;;;;;;17.15;10.50;;;;;;;;;;4976556;28;20160;-64
2024/02/10 02:33:20;;;;;;;18.45;10.45;;;;;;;;;;4978408;28;20038;-64
2024/02/10 02:35:48;;;;;;;16.20;9.50;;;;;;;;;;4974973;28;20149;-64
2024/02/10 02:38:14;;;;;;;16.50;9.18;;;;;;;;;;4976775;28;20046;-64
2024/02/10 02:40:41;;;;;;;15.68;9.00;;;;;;;;;;4985406;28;20035;-67
2024/02/10 02:43:09;;;;;;;17.80;10.15;;;;;;;;;;4976305;28;20035;-64
2024/02/10 02:45:35;;;;;;;13.55;8.70;;;;;;;;;;4985378;28;20054;-64
2024/02/10 02:48:03;;;;;;;15.68;9.02;;;;;;;;;;4978271;28;20038;-64
2024/02/10 02:50:30;;;;;;;16.60;8.90;;;;;;;;;;4982731;28;20442;-64
2024/02/10 02:53:03;;;;;;;16.05;8.68;;;;;;;;;;4979880;28;20045;-64
2024/02/10 02:55:29;;;;;;;18.67;9.85;;;;;;;;;;4972253;28;20147;-64
2024/02/10 02:58:02;;;;;;;15.23;8.68;;;;;;;;;;4975004;28;20035;-64
2024/02/10 03:00:29;;;;;;;15.23;8.55;;;;;;;;;;4975437;28;20035;-65
2024/02/10 03:02:59;;;;;;;14.80;8.15;;;;;;;;;;4979765;28;20042;-63
2024/02/10 03:05:25;;;;;;;14.85;8.13;;;;;;;;;;4975036;28;20039;-63
2024/02/10 03:07:51;;;;;;;14.80;8.27;;;;;;;;;;4978209;28;20037;-63
2024/02/10 03:10:18;;;;;;;15.40;8.98;;;;;;;;;;4983190;28;20053;-64
2024/02/10 03:12:46;;;;;;;14.05;8.52;;;;;;;;;;4967591;28;20042;-64
2024/02/10 03:15:13;;;;;;;14.57;8.32;;;;;;;;;;4982044;28;20035;-63
2024/02/10 03:17:40;;;;;;;14.65;8.45;;;;;;;;;;4983044;28;20042;-65
2024/02/10 03:20:06;;;;;;;14.07;8.32;;;;;;;;;;4979597;28;20026;-68
2024/02/10 03:22:33;;;;;;;12.32;7.78;;;;;;;;;;4970042;28;20425;-68
2024/02/10 03:24:59;;;;;;;15.73;7.43;;;;;;;;;;4974595;28;20047;-65
2024/02/10 03:27:25;;;;;;;15.68;7.05;;;;;;;;;;4975963;28;20073;-65
2024/02/10 03:29:51;;;;;;;13.48;7.60;;;;;;;;;;4976249;28;20030;-64
2024/02/10 03:32:17;;;;;;;15.13;7.68;;;;;;;;;;4976017;28;20082;-63
2024/02/10 03:34:43;;;;;;;14.57;7.97;;;;;;;;;;4978132;28;20529;-64
2024/02/10 03:37:12;;;;;;;14.25;7.72;;;;;;;;;;4982726;28;20062;-64
2024/02/10 03:39:38;;;;;;;12.68;7.45;;;;;;;;;;4974406;28;20031;-64
2024/02/10 03:42:07;;;;;;;11.13;6.70;;;;;;;;;;4976460;28;20046;-64
2024/02/10 03:44:35;;;;;;;11.07;6.68;;;;;;;;;;4976559;28;20367;-63
2024/02/10 03:47:01;;;;;;;12.95;6.90;;;;;;;;;;4974762;28;20497;-64
2024/02/10 03:49:28;;;;;;;17.27;7.20;;;;;;;;;;4980980;28;20402;-65
2024/02/10 03:51:54;;;;;;;13.07;7.38;;;;;;;;;;4976234;28;20371;-65
2024/02/10 03:54:22;;;;;;;14.77;6.63;;;;;;;;;;4974301;28;20038;-64
2024/02/10 03:56:49;;;;;;;12.23;6.68;;;;;;;;;;4973927;28;20038;-64
2024/02/10 03:59:16;;;;;;;12.95;6.50;;;;;;;;;;4982285;28;20046;-64
2024/02/10 04:01:43;;;;;;;11.85;6.90;;;;;;;;;;4974456;28;20045;-62
2024/02/10 04:04:09;;;;;;;12.20;6.25;;;;;;;;;;4982134;28;20050;-64
2024/02/10 04:06:37;;;;;;;9.50;5.57;;;;;;;;;;4972519;28;20055;-65
2024/02/10 04:09:06;;;;;;;9.10;4.50;;;;;;;;;;4973002;28;20050;-63
2024/02/10 04:11:33;;;;;;;11.18;6.32;;;;;;;;;;4977214;28;20121;-64
2024/02/10 04:14:00;;;;;;;11.93;6.10;;;;;;;;;;4977863;28;20038;-63
2024/02/10 04:16:26;;;;;;;12.48;6.45;;;;;;;;;;4980245;28;20498;-64
2024/02/10 04:18:59;;;;;;;10.63;6.05;;;;;;;;;;4974196;28;20046;-63
2024/02/10 04:21:26;;;;;;;10.13;5.97;;;;;;;;;;4974137;28;20026;-68
2024/02/10 04:23:52;;;;;;;11.80;5.85;;;;;;;;;;4977123;28;20042;-67
2024/02/10 04:26:19;;;;;;;9.60;5.90;;;;;;;;;;4985994;28;20498;-68
2024/02/10 04:28:45;;;;;;;9.80;5.53;;;;;;;;;;4979810;28;20087;-67
2024/02/10 04:31:13;;;;;;;10.60;5.45;;;;;;;;;;4980106;28;20052;-64
2024/02/10 04:33:46;;;;;;;7.97;4.97;;;;;;;;;;4974164;28;20057;-64
2024/02/10 04:36:12;;;;;;;9.95;5.00;;;;;;;;;;4984174;28;20104;-64
2024/02/10 04:38:39;;;;;;;7.53;4.50;;;;;;;;;;4977437;28;20050;-64
2024/02/10 04:41:05;;;;;;;7.97;4.57;;;;;;;;;;4975497;28;20670;-63
2024/02/10 04:43:31;;;;;;;9.20;4.78;;;;;;;;;;4977833;28;20050;-64
2024/02/10 04:45:57;;;;;;;6.85;4.10;;;;;;;;;;4971466;28;20055;-64
2024/02/10 04:48:23;;;;;;;9.55;5.53;;;;;;;;;;4979051;28;20141;-64
2024/02/10 04:50:49;;;;;;;10.10;4.78;;;;;;;;;;4973320;28;20395;-64
2024/02/10 04:53:15;;;;;;;8.90;4.60;;;;;;;;;;4976408;28;20402;-63
2024/02/10 04:55:42;;;;;;;7.05;4.57;;;;;;;;;;4977916;28;20030;-64
2024/02/10 04:58:08;;;;;;;7.40;4.43;;;;;;;;;;4976131;28;20402;-63
2024/02/10 05:00:34;;;;;;;7.03;4.38;;;;;;;;;;4974778;28;20034;-63
2024/02/10 05:03:02;;;;;;;7.75;4.70;;;;;;;;;;4972896;28;20035;-63
2024/02/10 05:05:29;;;;;;;7.90;4.10;;;;;;;;;;4981417;28;20065;-63
2024/02/10 05:07:58;;;;;;;8.40;4.50;;;;;;;;;;4975867;28;20034;-64
2024/02/10 05:10:25;;;;;;;9.38;4.57;;;;;;;;;;4972555;28;20054;-64
2024/02/10 05:12:52;;;;;;;11.13;5.13;;;;;;;;;;4983963;28;20061;-63
2024/02/10 05:15:19;;;;;;;7.35;4.30;;;;;;;;;;4981577;28;20443;-63
2024/02/10 05:17:50;;;;;;;9.05;4.50;;;;;;;;;;4976976;28;20064;-65
2024/02/10 05:20:18;;;;;;;8.73;4.38;;;;;;;;;;4975692;28;20030;-63
2024/02/10 05:22:49;;;;;;;7.60;3.78;;;;;;;;;;4979152;28;20051;-63
2024/02/10 05:25:21;;;;;;;8.95;4.18;;;;;;;;;;4972418;28;20057;-62
2024/02/10 05:27:48;;;;;;;8.20;4.10;;;;;;;;;;4977607;28;20046;-63
2024/02/10 05:30:20;;;;;;;8.48;4.55;;;;;;;;;;4975252;28;20046;-63
2024/02/10 05:32:50;;;;;;;9.52;4.50;;;;;;;;;;4986887;28;20050;-64
2024/02/10 05:35:20;;;;;;;7.97;4.35;;;;;;;;;;4983371;28;20548;-66
2024/02/10 05:37:53;;;;;;;7.65;4.40;;;;;;;;;;4978828;28;20038;-65
2024/02/10 05:40:21;;;;;;;7.85;4.45;;;;;;;;;;4975968;28;20051;-63
2024/02/10 05:42:50;;;;;;;7.75;4.47;;;;;;;;;;4971774;28;20038;-63
2024/02/10 05:45:20;;;;;;;7.18;4.38;;;;;;;;;;4972398;28;20047;-64
2024/02/10 05:47:50;;;;;;;8.77;4.70;;;;;;;;;;4980089;28;20062;-65
2024/02/10 05:50:22;;;;;;;10.00;5.75;;;;;;;;;;4978435;28;20051;-64
2024/02/10 05:52:50;;;;;;;7.28;4.25;;;;;;;;;;4973353;28;20050;-63
2024/02/10 05:55:21;;;;;;;11.30;5.00;;;;;;;;;;4975110;28;20486;-63
2024/02/10 05:57:47;;;;;;;11.00;5.15;;;;;;;;;;4974064;28;20046;-66
2024/02/10 06:00:14;;;;;;;8.18;4.80;;;;;;;;;;4955235;28;20490;-63
2024/02/10 06:02:41;;;;;;;8.60;5.13;;;;;;;;;;4950691;28;20042;-64
2024/02/10 06:05:09;;;;;;;8.55;4.72;;;;;;;;;;4976389;28;20145;-62
2024/02/10 06:07:37;;;;;;;8.52;4.75;;;;;;;;;;4974418;28;20043;-63
2024/02/10 06:10:09;;;;;;;9.30;5.40;;;;;;;;;;4971925;28;20401;-61
2024/02/10 06:12:39;;;;;;;9.25;4.78;;;;;;;;;;4959440;28;20030;-62
2024/02/10 06:15:10;;;;;;;11.10;5.10;;;;;;;;;;4969482;28;20154;-62
2024/02/10 06:17:39;;;;;;;8.15;4.40;;;;;;;;;;4975051;28;20054;-62
2024/02/10 06:20:12;;;;;;;9.68;4.40;;;;;;;;;;4959945;28;20055;-62
2024/02/10 06:22:38;;;;;;;8.35;4.18;;;;;;;;;;4968134;28;20470;-63
2024/02/10 06:25:05;;;;;;;7.55;4.25;;;;;;;;;;4979993;28;20039;-63
2024/02/10 06:27:34;;;;;;;5.45;3.20;;;;;;;;;;4975420;28;20042;-64
2024/02/10 06:30:01;;;;;;;6.40;3.53;;;;;;;;;;4955561;28;20039;-63
2024/02/10 06:32:28;;;;;;;5.93;3.53;;;;;;;;;;4980738;28;20288;-64
2024/02/10 06:34:55;;;;;;;5.90;3.50;;;;;;;;;;4974705;28;20049;-63
2024/02/10 06:37:25;;;;;;;6.80;3.50;;;;;;;;;;4987774;28;20050;-63
2024/02/10 06:39:51;;;;;;;5.90;3.45;;;;;;;;;;4985547;28;20041;-63
2024/02/10 06:42:17;;;;;;;5.85;3.40;;;;;;;;;;4973569;28;20064;-63
2024/02/10 06:44:44;;;;;;;4.75;2.72;;;;;;;;;;4986406;28;20038;-63
2024/02/10 06:47:10;;;;;;;5.63;3.42;;;;;;;;;;4980522;28;20050;-63
2024/02/10 06:49:37;;;;;;;5.68;3.47;;;;;;;;;;4973885;28;20398;-63
2024/02/10 06:52:03;;;;;;;3.78;2.95;;;;;;;;;;4978926;28;20046;-64
2024/02/10 06:54:29;;;;;;;6.80;3.53;;;;;;;;;;4986440;28;20038;-64
2024/02/10 06:56:58;;;;;;;5.95;3.30;;;;;;;;;;4979246;28;20489;-64
2024/02/10 06:59:26;;;;;;;5.75;3.63;;;;;;;;;;4982559;28;20494;-61
2024/02/10 07:01:54;;;;;;;6.50;3.60;;;;;;;;;;4981440;28;20061;-63
2024/02/10 07:04:22;;;;;;;7.85;3.90;;;;;;;;;;4991136;28;20050;-61
2024/02/10 07:06:53;;;;;;;10.25;5.85;;;;;;;;;;4986449;28;20046;-63
2024/02/10 07:09:21;;;;;;;18.58;9.20;;;;;;;;;;4983866;28;20379;-63
2024/02/10 07:11:50;;;;;;;38.17;20.40;;;;;;;;;;4987405;28;20485;-63
2024/02/10 07:14:19;;;;;;;40.55;22.73;;;;;;;;;;4987711;28;20046;-62
2024/02/10 07:16:46;;;;;;;38.63;20.63;;;;;;;;;;4984826;28;20031;-62
2024/02/10 07:19:12;;;;;;;33.47;18.50;;;;;;;;;;4981093;28;20038;-63
2024/02/10 07:21:39;;;;;;;31.00;17.05;;;;;;;;;;4987212;28;20411;-63
2024/02/10 07:24:07;;;;;;;33.78;18.15;;;;;;;;;;4988656;28;20059;-65
2024/02/10 07:26:34;;;;;;;27.23;14.82;;;;;;;;;;4988740;28;20390;-62
2024/02/10 07:29:02;;;;;;;18.35;10.68;;;;;;;;;;4982704;28;20042;-63
2024/02/10 07:31:28;;;;;;;14.50;8.40;;;;;;;;;;4985079;28;20034;-63
2024/02/10 07:33:58;;;;;;;15.30;7.93;;;;;;;;;;4989503;28;20058;-63
2024/02/10 07:36:34;;;;;;;13.63;7.78;;;;;;;;;;4988789;28;20490;-63
2024/02/10 07:39:06;;;;;;;16.67;8.23;;;;;;;;;;4989744;28;20054;-62
2024/02/10 07:41:34;;;;;;;16.70;9.40;;;;;;;;;;4984450;28;20046;-61
2024/02/10 07:44:05;;;;;;;24.23;12.40;;;;;;;;;;4980544;28;20409;-62
2024/02/10 07:46:34;;;;;;;25.75;13.10;;;;;;;;;;4981526;28;20046;-63
2024/02/10 07:49:04;;;;;;;25.27;13.02;;;;;;;;;;4976641;28;20034;-62
2024/02/10 07:51:31;;;;;;;;;;;;;;;;;;4984086;28;20448;-62
2024/02/10 07:53:58;;;;;;;30.88;16.20;;;;;;;;;;4975827;28;19914;-62
2024/02/10 07:56:31;;;;;;;34.97;17.67;;;;;;;;;;4975844;28;20061;-62
2024/02/10 07:58:59;;;;;;;36.53;18.42;;;;;;;;;;4981568;28;20034;-63
2024/02/10 08:01:26;;;;;;;25.38;13.55;;;;;;;;;;4977568;28;20035;-64
2024/02/10 08:03:54;;;;;;;29.88;15.80;;;;;;;;;;4975017;28;20569;-63
2024/02/10 08:06:26;;;;;;;27.67;13.75;;;;;;;;;;4983870;28;20108;-64
2024/02/10 08:08:57;;;;;;;28.02;14.45;;;;;;;;;;4983685;28;20042;-64
2024/02/10 08:11:27;;;;;;;27.52;14.25;;;;;;;;;;4986894;28;20528;-63
2024/02/10 08:13:53;;;;;;;;;;;;;;;;;;4987778;28;20045;-63
2024/02/10 08:16:28;;;;;;;25.95;14.13;;;;;;;;;;4988260;28;19914;-63
2024/02/10 08:18:54;;;;;;;27.27;14.27;;;;;;;;;;4975487;28;20680;-63
2024/02/10 08:21:22;;;;;;;27.08;13.85;;;;;;;;;;4975006;28;20054;-63
2024/02/10 08:23:52;;;;;;;24.25;13.65;;;;;;;;;;4986076;28;20042;-63
2024/02/10 08:26:19;;;;;;;22.20;11.98;;;;;;;;;;4976375;28;20057;-65
2024/02/10 08:28:50;;;;;;;22.02;12.57;;;;;;;;;;4979883;28;20434;-62
2024/02/10 08:31:19;;;;;;;22.67;13.23;;;;;;;;;;4984394;28;20034;-63
2024/02/10 08:33:48;;;;;;;26.35;13.98;;;;;;;;;;4981363;28;20053;-63
2024/02/10 08:36:15;;;;;;;25.33;14.07;;;;;;;;;;4984520;28;20050;-63
2024/02/10 08:38:44;;;;;;;26.85;14.10;;;;;;;;;;4986720;28;20403;-63
2024/02/10 08:41:11;;;;;;;26.13;14.10;;;;;;;;;;4979978;28;20038;-63
2024/02/10 08:43:42;;;;;;;32.38;16.35;;;;;;;;;;4988361;28;20092;-63
2024/02/10 08:46:08;;;;;;;25.70;14.60;;;;;;;;;;4974322;28;20034;-63
2024/02/10 08:48:34;;;;;;;53.63;25.80;;;;;;;;;;4976120;28;20144;-63
2024/02/10 08:51:00;;;;;;;49.72;23.85;;;;;;;;;;4977086;28;20034;-66
2024/02/10 08:53:26;;;;;;;34.00;15.88;;;;;;;;;;4981431;28;20042;-63
2024/02/10 08:55:53;;;;;;;27.40;12.98;;;;;;;;;;4985109;28;20030;-63
2024/02/10 08:58:19;;;;;;;24.38;14.18;;;;;;;;;;4975688;28;20054;-66
2024/02/10 09:00:46;;;;;;;23.75;13.57;;;;;;;;;;4976831;28;20046;-65
2024/02/10 09:03:13;;;;;;;24.77;13.27;;;;;;;;;;4978311;28;20502;-63
2024/02/10 09:05:40;;;;;;;23.88;13.13;;;;;;;;;;4974774;28;20066;-65
2024/02/10 09:08:06;;;;;;;24.00;12.63;;;;;;;;;;4975471;28;20042;-66
2024/02/10 09:10:32;;;;;;;21.40;12.38;;;;;;;;;;4971914;28;20497;-66
2024/02/10 09:12:59;;;;;;;17.88;10.88;;;;;;;;;;4975289;28;20046;-65
2024/02/10 09:15:26;;;;;;;18.85;9.85;;;;;;;;;;4975086;28;20034;-64
2024/02/10 09:17:52;;;;;;;19.60;10.15;;;;;;;;;;4972589;28;20043;-64
2024/02/10 09:20:18;;;;;;;20.55;10.80;;;;;;;;;;4977661;28;20050;-64
2024/02/10 09:22:44;;;;;;;20.17;10.68;;;;;;;;;;4982006;28;20477;-64
2024/02/10 09:25:10;;;;;;;17.70;9.90;;;;;;;;;;4970141;28;20499;-64
2024/02/10 09:27:37;;;;;;;21.95;11.30;;;;;;;;;;4977298;28;20046;-65
2024/02/10 09:30:04;;;;;;;20.23;10.35;;;;;;;;;;4975032;28;20042;-64
2024/02/10 09:32:31;;;;;;;17.63;9.60;;;;;;;;;;4970233;28;20366;-66
2024/02/10 09:34:57;;;;;;;17.23;10.00;;;;;;;;;;4977429;28;20050;-65
2024/02/10 09:37:23;;;;;;;19.50;10.77;;;;;;;;;;4973318;28;20043;-64
2024/02/10 09:39:49;;;;;;;17.63;9.98;;;;;;;;;;4974157;28;20050;-65
2024/02/10 09:42:23;;;;;;;23.63;11.40;;;;;;;;;;4981620;28;20069;-64
2024/02/10 09:44:49;;;;;;;19.15;10.07;;;;;;;;;;4973057;28;20034;-67
2024/02/10 09:47:16;;;;;;;16.33;9.65;;;;;;;;;;4982397;28;20928;-68
2024/02/10 09:49:43;;;;;;;28.75;13.65;;;;;;;;;;4979971;28;20135;-68
2024/02/10 09:52:09;;;;;;;40.40;19.23;;;;;;;;;;4981437;28;20391;-64
2024/02/10 09:54:36;;;;;;;49.45;24.27;;;;;;;;;;4984782;28;20053;-64
2024/02/10 09:57:07;;;;;;;54.45;25.80;;;;;;;;;;4983499;28;20050;-65
2024/02/10 09:59:33;;;;;;;42.50;23.20;;;;;;;;;;4973195;28;20062;-65
2024/02/10 10:01:59;;;;;;;66.32;25.20;;;;;;;;;;4973674;28;20045;-64
2024/02/10 10:04:25;;;;;;;60.50;23.48;;;;;;;;;;4969841;28;20042;-64
2024/02/10 10:06:52;;;;;;;51.55;20.20;;;;;;;;;;4979708;28;20053;-64
2024/02/10 10:09:18;;;;;;;93.75;27.05;;;;;;;;;;4980351;28;20165;-64
2024/02/10 10:11:45;;;;;;;79.40;24.10;;;;;;;;;;4980158;28;20342;-64
2024/02/10 10:14:14;;;;;;;68.75;25.92;;;;;;;;;;4999447;28;20046;-65
2024/02/10 10:16:41;;;;;;;80.85;29.67;;;;;;;;;;4980648;28;20409;-65
2024/02/10 10:19:08;;;;;;;76.78;27.10;;;;;;;;;;4978185;28;20043;-65
2024/02/10 10:21:34;;;;;;;55.50;23.67;;;;;;;;;;4976063;28;20042;-65
2024/02/10 10:24:00;;;;;;;48.35;22.65;;;;;;;;;;4985126;28;20057;-65
2024/02/10 10:26:27;;;;;;;44.42;20.88;;;;;;;;;;4984130;28;20045;-64
2024/02/10 10:28:53;;;;;;;39.67;19.10;;;;;;;;;;4983819;28;20046;-64
2024/02/10 10:31:19;;;;;;;71.20;31.98;;;;;;;;;;4971501;28;20046;-64
2024/02/10 10:33:48;;;;;;;100.50;40.55;;;;;;;;;;4976535;28;20042;-64
2024/02/10 10:36:16;;;;;;;75.32;31.65;;;;;;;;;;4979758;28;20061;-64
2024/02/10 10:38:44;;;;;;;83.72;34.28;;;;;;;;;;4976603;28;20047;-64
2024/02/10 10:41:13;;;;;;;66.80;28.70;;;;;;;;;;4981926;28;20043;-64
2024/02/10 10:43:43;;;;;;;48.60;25.27;;;;;;;;;;4979414;28;20039;-64
2024/02/10 10:46:16;;;;;;;39.15;21.70;;;;;;;;;;4978969;28;20645;-64
2024/02/10 10:48:44;;;;;;;35.00;17.65;;;;;;;;;;4985410;28;20053;-64
2024/02/10 10:51:12;;;;;;;33.42;17.17;;;;;;;;;;4979295;28;21748;-64
2024/02/10 10:53:45;;;;;;;36.58;18.10;;;;;;;;;;4985049;28;20038;-64
2024/02/10 10:56:15;;;;;;;36.80;18.27;;;;;;;;;;4986631;28;20050;-65
2024/02/10 10:58:48;;;;;;;38.40;19.67;;;;;;;;;;4975156;28;20050;-64
2024/02/10 11:01:20;;;;;;;38.10;18.48;;;;;;;;;;4982949;28;20418;-63
2024/02/10 11:03:54;;;;;;;38.90;19.55;;;;;;;;;;4987175;28;20042;-63
2024/02/10 11:06:22;;;;;;;34.45;17.50;;;;;;;;;;4985906;28;20050;-64
2024/02/10 11:08:53;;;;;;;37.22;19.23;;;;;;;;;;4988373;28;20042;-64
2024/02/10 11:11:20;;;;;;;42.85;20.33;;;;;;;;;;4976587;28;20423;-64
2024/02/10 11:13:46;;;;;;;41.63;20.00;;;;;;;;;;4980417;28;20737;-64
2024/02/10 11:16:14;;;;;;;45.13;21.27;;;;;;;;;;4973907;28;20042;-64
2024/02/10 11:18:43;;;;;;;41.05;19.63;;;;;;;;;;4980990;28;20547;-64
2024/02/10 11:21:21;;;;;;;40.33;19.45;;;;;;;;;;4975443;28;20044;-65
2024/02/10 11:24:05;;;;;;;40.63;20.48;;;;;;;;;;4982264;28;20041;-65
2024/02/10 11:26:33;;;;;;;41.33;20.95;;;;;;;;;;4975076;28;20049;-64
2024/02/10 11:29:01;;;;;;;41.33;19.38;;;;;;;;;;4980350;28;20050;-64
2024/02/10 11:31:28;;;;;;;42.88;20.42;;;;;;;;;;4967287;28;20038;-65
2024/02/10 11:34:05;;;;;;;37.10;18.30;;;;;;;;;;4987356;28;20042;-64
2024/02/10 11:36:35;;;;;;;40.58;19.00;;;;;;;;;;4974209;28;20038;-63
2024/02/10 11:39:02;;;;;;;43.78;20.52;;;;;;;;;;4985760;28;20046;-64
2024/02/10 11:41:30;;;;;;;43.70;21.05;;;;;;;;;;4982304;28;20046;-64
2024/02/10 11:43:56;;;;;;;51.45;24.50;;;;;;;;;;4979416;28;20062;-64
2024/02/10 11:46:26;;;;;;;53.20;24.55;;;;;;;;;;4976846;28;20050;-64
2024/02/10 11:48:53;;;;;;;58.47;27.08;;;;;;;;;;4980499;28;20034;-64
2024/02/10 11:51:22;;;;;;;57.25;27.80;;;;;;;;;;4975941;28;20359;-64
2024/02/10 11:53:49;;;;;;;64.05;29.48;;;;;;;;;;4980133;28;20046;-64
2024/02/10 11:56:16;;;;;;;57.53;28.95;;;;;;;;;;4972399;28;20383;-65
2024/02/10 11:58:47;;;;;;;50.17;25.10;;;;;;;;;;4975333;28;20051;-64
2024/02/10 12:01:13;;;;;;;61.00;27.40;;;;;;;;;;4974932;28;20101;-64
2024/02/10 12:03:43;;;;;;;57.90;27.48;;;;;;;;;;4976714;28;20042;-64
2024/02/10 12:06:11;;;;;;;;;;;;;;;;;;4980585;28;20046;-64
2024/02/10 12:08:42;;;;;;;52.78;24.38;;;;;;;;;;4975135;28;19914;-64
2024/02/10 12:11:14;;;;;;;44.30;22.52;;;;;;;;;;4973079;28;20041;-65
2024/02/10 12:13:42;;;;;;;46.17;21.73;;;;;;;;;;4975352;28;20047;-64
2024/02/10 12:16:11;;;;;;;44.90;22.73;;;;;;;;;;4977653;28;20034;-64
2024/02/10 12:18:39;;;;;;;47.13;23.17;;;;;;;;;;4977192;28;20387;-64
2024/02/10 12:21:05;;;;;;;47.40;23.85;;;;;;;;;;4977695;28;20055;-63
2024/02/10 12:23:32;;;;;;;50.20;24.88;;;;;;;;;;4980597;28;20038;-64
2024/02/10 12:26:01;;;;;;;48.35;23.58;;;;;;;;;;4986675;28;20046;-64
2024/02/10 12:28:32;;;;;;;43.70;23.60;;;;;;;;;;4979852;28;20049;-65
2024/02/10 12:30:58;;;;;;;54.50;27.77;;;;;;;;;;4976662;28;20517;-64
2024/02/10 12:33:24;;;;;;;50.05;27.55;;;;;;;;;;4984064;28;20037;-64
2024/02/10 12:35:53;;;;;;;51.17;25.90;;;;;;;;;;4985972;28;20073;-64
2024/02/10 12:38:20;;;;;;;;;;;;;;;;;;4981303;28;20046;-65
2024/02/10 12:40:46;;;;;;;46.15;23.02;;;;;;;;;;4976949;28;20388;-63
2024/02/10 12:43:13;;;;;;;43.20;21.50;;;;;;;;;;4985677;28;20038;-63
2024/02/10 12:45:46;;;;;;;47.50;21.65;;;;;;;;;;4987322;28;20050;-65
2024/02/10 12:48:15;;;;;;;44.42;22.80;;;;;;;;;;4986358;28;20041;-65
2024/02/10 12:50:43;;;;;;;49.05;24.10;;;;;;;;;;4982163;28;20051;-65
2024/02/10 12:53:13;;;;;;;35.97;19.75;;;;;;;;;;4983530;28;20507;-65
2024/02/10 12:55:44;;;;;;;40.90;22.00;;;;;;;;;;4983308;28;20423;-64
2024/02/10 12:58:11;;;;;;;39.28;21.52;;;;;;;;;;4977749;28;20061;-64
2024/02/10 13:00:38;;;;;;;35.13;18.83;;;;;;;;;;4974981;28;20529;-64
2024/02/10 13:03:05;;;;;;;36.33;19.05;;;;;;;;;;4983285;28;20042;-64
2024/02/10 13:05:34;;;;;;;36.92;18.05;;;;;;;;;;4981771;28;20628;-64
2024/02/10 13:08:00;;;;;;;29.92;15.43;;;;;;;;;;4975976;28;20059;-64
2024/02/10 13:10:28;;;;;;;28.25;14.85;;;;;;;;;;4978602;28;20042;-65
2024/02/10 13:12:54;;;;;;;27.95;14.18;;;;;;;;;;4981198;28;20034;-63
2024/02/10 13:15:25;;;;;;;25.90;13.45;;;;;;;;;;4970772;28;20039;-65
2024/02/10 13:17:52;;;;;;;25.70;14.38;;;;;;;;;;4975837;28;20395;-64
2024/02/10 13:20:24;;;;;;;25.88;13.93;;;;;;;;;;4985029;28;20053;-64
2024/02/10 13:22:54;;;;;;;23.95;14.02;;;;;;;;;;4982433;28;20053;-64
2024/02/10 13:25:21;;;;;;;25.15;13.70;;;;;;;;;;4976388;28;20053;-64
2024/02/10 13:27:51;;;;;;;25.63;14.05;;;;;;;;;;4975801;28;20045;-64
2024/02/10 13:30:18;;;;;;;23.80;14.20;;;;;;;;;;4978935;28;20034;-65
2024/02/10 13:32:44;;;;;;;24.48;13.60;;;;;;;;;;4972053;28;20268;-65
2024/02/10 13:35:14;;;;;;;22.88;13.20;;;;;;;;;;4971485;28;20058;-64
2024/02/10 14:08:35;;;;;;;21.98;13.50;;;;;;;;;;4973114;28;20045;-64
2024/02/10 14:12:45;;;;;;;23.85;14.27;;;;;;;;;;4971504;28;20145;-63
2024/02/10 14:15:17;;;;;;;26.48;14.35;;;;;;;;;;4978559;28;20057;-63
2024/02/10 14:17:47;;;;;;;26.02;14.73;;;;;;;;;;4976328;28;20030;-64
2024/02/10 14:20:22;;;;;;;26.85;16.17;;;;;;;;;;4979201;28;20042;-64
2024/02/10 14:22:49;;;;;;;29.48;16.52;;;;;;;;;;4978042;28;20400;-64
2024/02/10 14:25:25;;;;;;;24.98;15.23;;;;;;;;;;4975460;28;20043;-64
2024/02/10 14:27:58;;;;;;;26.98;16.58;;;;;;;;;;4973654;28;20034;-64
2024/02/10 14:30:36;;;;;;;28.20;16.83;;;;;;;;;;4976793;28;20441;-64
2024/02/10 14:33:06;;;;;;;29.50;16.77;;;;;;;;;;4968584;28;20055;-64
2024/02/10 14:35:49;;;;;;;29.75;16.65;;;;;;;;;;4973510;28;20031;-63
2024/02/10 14:38:36;;;;;;;27.67;16.75;;;;;;;;;;4972657;28;20391;-64
2024/02/10 14:41:04;;;;;;;26.23;16.75;;;;;;;;;;4972818;28;20046;-64
2024/02/10 14:43:35;;;;;;;30.67;16.17;;;;;;;;;;4974372;28;20031;-64
2024/02/10 14:46:14;;;;;;;32.03;17.70;;;;;;;;;;4977930;28;20062;-65
2024/02/10 14:48:42;;;;;;;;;;;;;;;;;;4996619;23;20042;-59
2024/02/10 14:51:13;;;;;;;24.25;16.08;;;;;;;;;;4973302;28;20372;-59
2024/02/10 14:53:39;;;;;;;33.08;19.00;;;;;;;;;;4978252;28;20494;-59
2024/02/10 14:56:10;;;;;;;29.85;18.27;;;;;;;;;;4974686;28;20066;-58
2024/02/10 14:58:41;;;;;;;26.90;17.58;;;;;;;;;;4972591;28;20053;-58
2024/02/10 15:01:08;;;;;;;27.27;16.10;;;;;;;;;;4963593;28;20043;-59
2024/02/10 15:03:36;;;;;;;26.80;16.75;;;;;;;;;;4963722;28;20403;-57